Time,TemperatureF,DewpointF,PressureIn,WindDirection,WindDirectionDegrees,WindSpeedMPH,WindSpeedGustMPH,Humidity,HourlyPrecipIn,Conditions,Clouds,dailyrainin,SoftwareType,DateUTC
2013-04-24 00:01:00,65.0,62.0,30.12,ENE,59,3.0,6.0,89,99.99,,,-99.99,,2013-04-24 04:01:00,
2013-04-24 00:03:00,65.0,62.0,30.11,NE,49,2.0,6.0,90,99.99,,,-99.99,,2013-04-24 04:03:00,
2013-04-24 00:12:00,65.0,62.0,30.11,NE,49,2.0,6.0,90,99.99,,,-99.99,,2013-04-24 04:12:00,
2013-04-24 00:23:00,65.0,63.0,30.12,NE,49,2.0,5.0,92,99.99,,,-99.99,,2013-04-24 04:23:00,
2013-04-24 00:33:00,64.0,62.0,30.12,ENE,66,2.0,5.0,94,99.99,,,-99.99,,2013-04-24 04:33:00,
2013-04-24 00:43:00,64.0,62.0,30.12,ENE,66,2.0,5.0,94,99.99,,,-99.99,,2013-04-24 04:43:00,
2013-04-24 00:53:00,64.0,63.0,30.11,ENE,63,2.0,4.0,95,99.99,,,-99.99,,2013-04-24 04:53:00,
2013-04-24 01:02:00,63.0,62.0,30.11,NE,55,2.0,5.0,96,99.99,,,-99.99,,2013-04-24 05:02:00,
2013-04-24 01:12:00,63.0,62.0,30.11,NE,55,2.0,5.0,96,99.99,,,-99.99,,2013-04-24 05:12:00,
2013-04-24 01:22:00,63.0,62.0,30.11,NE,48,2.0,4.0,97,99.99,,,-99.99,,2013-04-24 05:22:00,
2013-04-24 01:32:00,63.0,62.0,30.11,ENE,68,2.0,5.0,98,99.99,,,-99.99,,2013-04-24 05:32:00,
2013-04-24 01:42:00,63.0,62.0,30.11,ENE,68,2.0,5.0,98,99.99,,,-99.99,,2013-04-24 05:42:00,
2013-04-24 01:52:00,63.0,63.0,30.10,ENE,65,3.0,4.0,99,99.99,,,-99.99,,2013-04-24 05:52:00,
2013-04-24 02:02:00,62.0,62.0,30.10,ENE,62,3.0,5.0,100,99.99,,,-99.99,,2013-04-24 06:02:00,
2013-04-24 02:12:00,62.0,62.0,30.10,ENE,62,3.0,5.0,100,99.99,,,-99.99,,2013-04-24 06:12:00,
2013-04-24 02:22:00,62.0,62.0,30.09,ENE,62,3.0,4.0,100,99.99,,,-99.99,,2013-04-24 06:22:00,
2013-04-24 02:33:00,62.0,62.0,30.09,ENE,58,3.0,4.0,100,99.99,,,-99.99,,2013-04-24 06:33:00,
2013-04-24 02:42:00,62.0,62.0,30.09,ENE,58,3.0,4.0,100,99.99,,,-99.99,,2013-04-24 06:42:00,
2013-04-24 02:52:00,61.0,61.0,30.09,NE,52,2.0,4.0,100,99.99,,,-99.99,,2013-04-24 06:52:00,
2013-04-24 03:02:00,61.0,61.0,30.09,NE,46,3.0,5.0,100,99.99,,,-99.99,,2013-04-24 07:02:00,
2013-04-24 03:11:00,61.0,61.0,30.09,NE,46,3.0,5.0,100,99.99,,,-99.99,,2013-04-24 07:11:00,
2013-04-24 03:22:00,62.0,62.0,30.08,NE,52,3.0,5.0,100,99.99,,,-99.99,,2013-04-24 07:22:00,
2013-04-24 03:32:00,62.0,62.0,30.08,NE,55,3.0,5.0,100,99.99,,,-99.99,,2013-04-24 07:32:00,
2013-04-24 03:42:00,62.0,62.0,30.08,NE,55,3.0,5.0,100,99.99,,,-99.99,,2013-04-24 07:42:00,
2013-04-24 03:52:00,61.0,61.0,30.08,NNE,27,0.0,3.0,100,99.99,,,-99.99,,2013-04-24 07:52:00,
2013-04-24 04:02:00,60.0,60.0,30.08,North,0,0.0,0.0,100,99.99,,,-99.99,,2013-04-24 08:02:00,
2013-04-24 04:12:00,60.0,60.0,30.08,North,0,0.0,0.0,100,99.99,,,-99.99,,2013-04-24 08:12:00,
2013-04-24 04:21:00,60.0,60.0,30.08,North,353,2.0,2.0,100,99.99,,,-99.99,,2013-04-24 08:21:00,
2013-04-24 04:33:00,60.0,60.0,30.08,North,10,1.0,2.0,100,99.99,,,-99.99,,2013-04-24 08:33:00,
2013-04-24 04:42:00,60.0,60.0,30.08,North,10,1.0,2.0,100,99.99,,,-99.99,,2013-04-24 08:42:00,
2013-04-24 04:52:00,59.0,59.0,30.08,NE,39,1.0,3.0,100,99.99,,,-99.99,,2013-04-24 08:52:00,
2013-04-24 05:02:00,59.0,59.0,30.08,NNE,14,1.0,3.0,100,99.99,,,-99.99,,2013-04-24 09:02:00,
2013-04-24 05:11:00,59.0,59.0,30.08,NNE,14,1.0,3.0,100,99.99,,,-99.99,,2013-04-24 09:11:00,
2013-04-24 05:21:00,59.0,59.0,30.09,North,8,2.0,4.0,100,99.99,,,-99.99,,2013-04-24 09:21:00,
2013-04-24 05:33:00,59.0,59.0,30.09,NNE,17,2.0,3.0,100,99.99,,,-99.99,,2013-04-24 09:33:00,
2013-04-24 05:42:00,59.0,59.0,30.09,NNE,17,2.0,3.0,100,99.99,,,-99.99,,2013-04-24 09:42:00,
2013-04-24 05:53:00,58.0,58.0,30.09,NNE,21,2.0,3.0,100,99.99,,,-99.99,,2013-04-24 09:53:00,
2013-04-24 06:02:00,59.0,59.0,30.10,NNE,13,2.0,4.0,100,99.99,,,-99.99,,2013-04-24 10:02:00,
2013-04-24 06:12:00,59.0,59.0,30.10,NNE,13,2.0,4.0,100,99.99,,,-99.99,,2013-04-24 10:12:00,
2013-04-24 06:22:00,59.0,59.0,30.10,NNE,15,3.0,4.0,100,99.99,,,-99.99,,2013-04-24 10:22:00,
2013-04-24 06:32:00,60.0,60.0,30.10,NNE,18,2.0,3.0,100,99.99,,,-99.99,,2013-04-24 10:32:00,
2013-04-24 06:42:00,60.0,60.0,30.10,NNE,18,2.0,3.0,100,99.99,,,-99.99,,2013-04-24 10:42:00,
2013-04-24 06:53:00,60.0,60.0,30.11,NE,48,1.0,2.0,100,99.99,,,-99.99,,2013-04-24 10:53:00,
2013-04-24 07:02:00,60.0,60.0,30.11,North,0,0.0,0.0,100,99.99,,,-99.99,,2013-04-24 11:02:00,
2013-04-24 07:11:00,60.0,60.0,30.11,North,0,0.0,0.0,100,99.99,,,-99.99,,2013-04-24 11:11:00,
2013-04-24 07:21:00,60.0,60.0,30.11,North,0,0.0,0.0,100,99.99,,,-99.99,,2013-04-24 11:21:00,
2013-04-24 07:32:00,61.0,61.0,30.11,NE,46,1.0,3.0,100,99.99,,,-99.99,,2013-04-24 11:32:00,
2013-04-24 07:42:00,61.0,61.0,30.11,NE,46,1.0,3.0,100,99.99,,,-99.99,,2013-04-24 11:42:00,
2013-04-24 07:52:00,61.0,61.0,30.12,ENE,66,0.0,3.0,100,99.99,,,-99.99,,2013-04-24 11:52:00,
2013-04-24 08:02:00,62.0,62.0,30.12,ENE,59,1.0,4.0,100,99.99,,,-99.99,,2013-04-24 12:02:00,
2013-04-24 08:11:00,63.0,63.0,30.13,ENE,69,1.0,4.0,100,99.99,,,-99.99,,2013-04-24 12:11:00,
2013-04-24 08:22:00,63.0,63.0,30.13,ENE,69,1.0,4.0,100,99.99,,,-99.99,,2013-04-24 12:22:00,
2013-04-24 08:32:00,64.0,64.0,30.13,ENE,66,3.0,6.0,100,99.99,,,-99.99,,2013-04-24 12:32:00,
2013-04-24 08:42:00,64.0,64.0,30.13,ENE,66,3.0,6.0,100,99.99,,,-99.99,,2013-04-24 12:42:00,
2013-04-24 08:52:00,65.0,65.0,30.13,NE,52,3.0,7.0,100,99.99,,,-99.99,,2013-04-24 12:52:00,
2013-04-24 09:01:00,66.0,66.0,30.13,NNE,13,3.0,5.0,100,99.99,,,-99.99,,2013-04-24 13:01:00,
2013-04-24 09:12:00,66.0,66.0,30.13,NNE,13,3.0,5.0,100,99.99,,,-99.99,,2013-04-24 13:12:00,
2013-04-24 09:22:00,67.0,67.0,30.14,ENE,62,1.0,3.0,100,99.99,,,-99.99,,2013-04-24 13:22:00,
2013-04-24 09:32:00,69.0,69.0,30.14,NE,39,2.0,4.0,99,99.99,,,-99.99,,2013-04-24 13:32:00,
2013-04-24 09:41:00,69.0,69.0,30.14,NE,39,2.0,4.0,99,99.99,,,-99.99,,2013-04-24 13:41:00,
2013-04-24 09:52:00,73.0,65.0,30.14,ENE,68,3.0,6.0,77,99.99,,,-99.99,,2013-04-24 13:52:00,
2013-04-24 10:01:00,74.0,64.0,30.14,SE,125,2.0,4.0,72,99.99,,,-99.99,,2013-04-24 14:01:00,
2013-04-24 10:11:00,74.0,64.0,30.14,SE,125,2.0,4.0,72,99.99,,,-99.99,,2013-04-24 14:11:00,
2013-04-24 10:21:00,76.0,62.0,30.14,ESE,103,6.0,11.0,62,99.99,,,-99.99,,2013-04-24 14:21:00,
2013-04-24 10:32:00,77.0,63.0,30.14,SSE,156,2.0,7.0,62,99.99,,,-99.99,,2013-04-24 14:32:00,
2013-04-24 10:41:00,77.0,63.0,30.14,SSE,156,2.0,7.0,62,99.99,,,-99.99,,2013-04-24 14:41:00,
2013-04-24 10:52:00,77.0,61.0,30.14,ESE,107,7.0,14.0,58,99.99,,,-99.99,,2013-04-24 14:52:00,
2013-04-24 11:01:00,78.0,62.0,30.14,SE,128,5.0,9.0,58,99.99,,,-99.99,,2013-04-24 15:01:00,
2013-04-24 11:11:00,78.0,62.0,30.14,SE,128,5.0,9.0,58,99.99,,,-99.99,,2013-04-24 15:11:00,
2013-04-24 11:22:00,78.0,61.0,30.14,SE,125,5.0,8.0,56,99.99,,,-99.99,,2013-04-24 15:22:00,
2013-04-24 11:33:00,79.0,61.0,30.14,SSE,148,4.0,10.0,55,99.99,,,-99.99,,2013-04-24 15:33:00,
2013-04-24 11:43:00,79.0,61.0,30.14,SSE,148,4.0,10.0,55,99.99,,,-99.99,,2013-04-24 15:43:00,
2013-04-24 11:53:00,80.0,62.0,30.14,SE,145,4.0,9.0,55,99.99,,,-99.99,,2013-04-24 15:53:00,
2013-04-24 12:03:00,80.0,61.0,30.14,ESE,104,3.0,10.0,53,99.99,,,-99.99,,2013-04-24 16:03:00,
2013-04-24 12:12:00,80.0,61.0,30.14,ESE,104,3.0,10.0,53,99.99,,,-99.99,,2013-04-24 16:12:00,
2013-04-24 12:23:00,81.0,62.0,30.14,South,172,4.0,10.0,52,99.99,,,-99.99,,2013-04-24 16:23:00,
2013-04-24 12:32:00,81.0,60.0,30.13,ESE,113,7.0,14.0,49,99.99,,,-99.99,,2013-04-24 16:32:00,
2013-04-24 12:42:00,82.0,61.0,30.12,ESE,120,5.0,11.0,49,99.99,,,-99.99,,2013-04-24 16:42:00,
2013-04-24 12:53:00,82.0,61.0,30.12,ESE,120,5.0,11.0,49,99.99,,,-99.99,,2013-04-24 16:53:00,
2013-04-24 13:02:00,82.0,61.0,30.11,ESE,117,6.0,12.0,49,99.99,,,-99.99,,2013-04-24 17:02:00,
2013-04-24 13:12:00,82.0,61.0,30.11,ESE,117,6.0,12.0,49,99.99,,,-99.99,,2013-04-24 17:12:00,
2013-04-24 13:22:00,82.0,60.0,30.11,SE,134,6.0,12.0,48,99.99,,,-99.99,,2013-04-24 17:22:00,
2013-04-24 13:32:00,84.0,62.0,30.10,ESE,104,3.0,8.0,47,99.99,,,-99.99,,2013-04-24 17:32:00,
2013-04-24 13:42:00,84.0,62.0,30.10,ESE,104,3.0,8.0,47,99.99,,,-99.99,,2013-04-24 17:42:00,
2013-04-24 13:52:00,86.0,62.0,30.10,SW,235,2.0,6.0,44,99.99,,,-99.99,,2013-04-24 17:52:00,
2013-04-24 14:02:00,86.0,60.0,30.10,SSW,212,4.0,9.0,41,99.99,,,-99.99,,2013-04-24 18:02:00,
2013-04-24 14:12:00,86.0,60.0,30.10,SSW,212,4.0,9.0,41,99.99,,,-99.99,,2013-04-24 18:12:00,
2013-04-24 14:22:00,87.0,59.0,30.09,ESE,120,3.0,7.0,39,99.99,,,-99.99,,2013-04-24 18:22:00,
2013-04-24 14:33:00,86.0,60.0,30.10,SE,132,3.0,6.0,41,99.99,,,-99.99,,2013-04-24 18:33:00,
2013-04-24 14:42:00,86.0,60.0,30.10,SE,132,3.0,6.0,41,99.99,,,-99.99,,2013-04-24 18:42:00,
2013-04-24 14:52:00,86.0,60.0,30.09,SE,138,1.0,5.0,42,99.99,,,-99.99,,2013-04-24 18:52:00,
2013-04-24 15:02:00,87.0,59.0,30.09,South,181,3.0,6.0,39,99.99,,,-99.99,,2013-04-24 19:02:00,
2013-04-24 15:11:00,87.0,59.0,30.09,South,181,3.0,6.0,39,99.99,,,-99.99,,2013-04-24 19:11:00,
2013-04-24 15:22:00,87.0,58.0,30.09,ESE,105,5.0,10.0,38,99.99,,,-99.99,,2013-04-24 19:22:00,
2013-04-24 15:32:00,86.0,58.0,30.08,ESE,121,2.0,6.0,39,99.99,,,-99.99,,2013-04-24 19:32:00,
2013-04-24 15:42:00,86.0,58.0,30.08,ESE,121,2.0,6.0,39,99.99,,,-99.99,,2013-04-24 19:42:00,
2013-04-24 15:52:00,85.0,59.0,30.08,ENE,66,1.0,4.0,41,99.99,,,-99.99,,2013-04-24 19:52:00,
2013-04-24 16:02:00,86.0,59.0,30.07,SE,135,4.0,10.0,40,99.99,,,-99.99,,2013-04-24 20:02:00,
2013-04-24 16:11:00,86.0,59.0,30.07,SE,135,4.0,10.0,40,99.99,,,-99.99,,2013-04-24 20:11:00,
2013-04-24 16:22:00,85.0,59.0,30.07,ENE,63,2.0,4.0,42,99.99,,,-99.99,,2013-04-24 20:22:00,
2013-04-24 16:32:00,86.0,60.0,30.06,SSE,148,1.0,3.0,42,99.99,,,-99.99,,2013-04-24 20:32:00,
2013-04-24 16:42:00,86.0,60.0,30.06,SSE,148,1.0,3.0,42,99.99,,,-99.99,,2013-04-24 20:42:00,
2013-04-24 16:52:00,87.0,58.0,30.06,NE,49,3.0,6.0,38,99.99,,,-99.99,,2013-04-24 20:52:00,
2013-04-24 17:02:00,86.0,60.0,30.06,East,101,2.0,6.0,41,99.99,,,-99.99,,2013-04-24 21:02:00,
2013-04-24 17:11:00,86.0,60.0,30.06,East,101,2.0,6.0,41,99.99,,,-99.99,,2013-04-24 21:11:00,
2013-04-24 17:22:00,84.0,60.0,30.06,NE,53,4.0,9.0,44,99.99,,,-99.99,,2013-04-24 21:22:00,
2013-04-24 17:33:00,84.0,60.0,30.06,ESE,103,4.0,8.0,44,99.99,,,-99.99,,2013-04-24 21:33:00,
2013-04-24 17:42:00,84.0,60.0,30.06,ESE,103,4.0,8.0,44,99.99,,,-99.99,,2013-04-24 21:42:00,
2013-04-24 17:53:00,84.0,59.0,30.07,ENE,63,2.0,5.0,43,99.99,,,-99.99,,2013-04-24 21:53:00,
2013-04-24 18:03:00,84.0,60.0,30.07,ESE,120,3.0,8.0,44,99.99,,,-99.99,,2013-04-24 22:03:00,
2013-04-24 18:12:00,84.0,60.0,30.07,ESE,120,3.0,8.0,44,99.99,,,-99.99,,2013-04-24 22:12:00,
2013-04-24 18:22:00,83.0,59.0,30.07,ESE,113,3.0,7.0,45,99.99,,,-99.99,,2013-04-24 22:22:00,
2013-04-24 18:33:00,83.0,61.0,30.08,East,96,3.0,7.0,47,99.99,,,-99.99,,2013-04-24 22:33:00,
2013-04-24 18:42:00,83.0,61.0,30.08,East,96,3.0,7.0,47,99.99,,,-99.99,,2013-04-24 22:42:00,
2013-04-24 18:52:00,82.0,60.0,30.07,ESE,108,5.0,8.0,48,99.99,,,-99.99,,2013-04-24 22:52:00,
2013-04-24 19:02:00,81.0,61.0,30.08,East,97,4.0,6.0,50,99.99,,,-99.99,,2013-04-24 23:02:00,
2013-04-24 19:12:00,81.0,61.0,30.08,East,97,4.0,6.0,50,99.99,,,-99.99,,2013-04-24 23:12:00,
2013-04-24 19:21:00,80.0,61.0,30.08,ESE,104,5.0,9.0,53,99.99,,,-99.99,,2013-04-24 23:21:00,
2013-04-24 19:32:00,79.0,61.0,30.08,SE,136,4.0,9.0,55,99.99,,,-99.99,,2013-04-24 23:32:00,
2013-04-24 19:42:00,79.0,61.0,30.08,SE,136,4.0,9.0,55,99.99,,,-99.99,,2013-04-24 23:42:00,
2013-04-24 19:52:00,78.0,62.0,30.08,ESE,108,5.0,10.0,58,99.99,,,-99.99,,2013-04-24 23:52:00,
2013-04-24 20:02:00,77.0,62.0,30.09,ESE,103,5.0,11.0,60,99.99,,,-99.99,,2013-04-25 00:02:00,
2013-04-24 20:12:00,77.0,62.0,30.09,ESE,103,5.0,11.0,60,99.99,,,-99.99,,2013-04-25 00:12:00,
2013-04-24 20:22:00,76.0,62.0,30.10,ESE,115,6.0,13.0,62,99.99,,,-99.99,,2013-04-25 00:22:00,
2013-04-24 20:32:00,75.0,62.0,30.10,East,97,5.0,11.0,64,99.99,,,-99.99,,2013-04-25 00:32:00,
2013-04-24 20:42:00,75.0,62.0,30.10,East,97,5.0,11.0,64,99.99,,,-99.99,,2013-04-25 00:42:00,
2013-04-24 20:52:00,75.0,63.0,30.11,ESE,108,5.0,12.0,66,99.99,,,-99.99,,2013-04-25 00:52:00,
2013-04-24 21:01:00,74.0,63.0,30.11,ESE,115,6.0,9.0,68,99.99,,,-99.99,,2013-04-25 01:01:00,
2013-04-24 21:11:00,74.0,63.0,30.11,ESE,115,6.0,9.0,68,99.99,,,-99.99,,2013-04-25 01:11:00,
2013-04-24 21:23:00,73.0,63.0,30.11,ESE,122,5.0,9.0,70,99.99,,,-99.99,,2013-04-25 01:23:00,
2013-04-24 21:32:00,73.0,63.0,30.12,ESE,118,5.0,8.0,71,99.99,,,-99.99,,2013-04-25 01:32:00,
2013-04-24 21:42:00,73.0,63.0,30.12,ESE,118,5.0,8.0,71,99.99,,,-99.99,,2013-04-25 01:42:00,
2013-04-24 21:52:00,72.0,62.0,30.13,SE,131,5.0,7.0,72,99.99,,,-99.99,,2013-04-25 01:52:00,
2013-04-24 22:02:00,72.0,62.0,30.14,ESE,122,5.0,8.0,72,99.99,,,-99.99,,2013-04-25 02:02:00,
2013-04-24 22:11:00,72.0,62.0,30.14,ESE,122,5.0,8.0,72,99.99,,,-99.99,,2013-04-25 02:11:00,
2013-04-24 22:22:00,71.0,62.0,30.14,ESE,111,4.0,7.0,74,99.99,,,-99.99,,2013-04-25 02:22:00,
2013-04-24 22:32:00,70.0,62.0,30.14,ESE,113,4.0,7.0,75,99.99,,,-99.99,,2013-04-25 02:32:00,
2013-04-24 22:42:00,70.0,62.0,30.14,ESE,113,4.0,7.0,75,99.99,,,-99.99,,2013-04-25 02:42:00,
2013-04-24 22:52:00,70.0,62.0,30.14,ESE,113,4.0,7.0,75,99.99,,,-99.99,,2013-04-25 02:52:00,
2013-04-24 23:02:00,69.0,62.0,30.14,ESE,111,4.0,6.0,79,99.99,,,-99.99,,2013-04-25 03:02:00,
2013-04-24 23:11:00,69.0,63.0,30.14,SE,127,4.0,6.0,81,99.99,,,-99.99,,2013-04-25 03:11:00,
2013-04-24 23:22:00,69.0,63.0,30.14,SE,127,4.0,6.0,81,99.99,,,-99.99,,2013-04-25 03:22:00,
2013-04-24 23:33:00,68.0,62.0,30.14,SE,129,2.0,6.0,82,99.99,,,-99.99,,2013-04-25 03:33:00,
2013-04-24 23:42:00,68.0,62.0,30.14,SE,129,2.0,6.0,82,99.99,,,-99.99,,2013-04-25 03:42:00,
2013-04-24 23:52:00,68.0,62.0,30.14,ESE,121,4.0,7.0,82,99.99,,,-99.99,,2013-04-25 03:52:00,